sensor_id;sensor_type;location;lat;lon;timestamp;pressure;altitude;pressure_sealevel;temperature;humidity
23446;BME280;11895;48.738;9.320;2022-10-13T00:01:09;99331.84;;;12.43;100.00
23446;BME280;11895;48.738;9.320;2022-10-13T00:03:39;99329.53;;;12.13;100.00
23446;BME280;11895;48.738;9.320;2022-10-13T00:06:08;99339.72;;;12.27;100.00
23446;BME280;11895;48.738;9.320;2022-10-13T00:08:37;99330.00;;;12.23;100.00
23446;BME280;11895;48.738;9.320;2022-10-13T00:13:40;99327.31;;;12.23;100.00
23446;BME280;11895;48.738;9.320;2022-10-13T00:16:09;99335.63;;;12.18;100.00
23446;BME280;11895;48.738;9.320;2022-10-13T00:18:37;99336.53;;;12.19;100.00
23446;BME280;11895;48.738;9.320;2022-10-13T00:21:09;99332.97;;;11.76;100.00
23446;BME280;11895;48.738;9.320;2022-10-13T00:23:38;99345.84;;;11.91;100.00
23446;BME280;11895;48.738;9.320;2022-10-13T00:26:08;99345.56;;;11.97;100.00
23446;BME280;11895;48.738;9.320;2022-10-13T00:28:37;99348.53;;;12.12;100.00
23446;BME280;11895;48.738;9.320;2022-10-13T00:31:20;99347.16;;;12.22;100.00
23446;BME280;11895;48.738;9.320;2022-10-13T00:33:56;99341.78;;;12.22;100.00
23446;BME280;11895;48.738;9.320;2022-10-13T00:36:24;99348.59;;;12.10;100.00
23446;BME280;11895;48.738;9.320;2022-10-13T00:38:52;99346.22;;;12.23;100.00
23446;BME280;11895;48.738;9.320;2022-10-13T00:41:20;99348.13;;;12.21;100.00
23446;BME280;11895;48.738;9.320;2022-10-13T00:43:56;99341.91;;;11.98;100.00
23446;BME280;11895;48.738;9.320;2022-10-13T00:46:33;99352.97;;;12.13;100.00
23446;BME280;11895;48.738;9.320;2022-10-13T00:49:13;99360.16;;;12.14;100.00
23446;BME280;11895;48.738;9.320;2022-10-13T00:51:47;99364.72;;;11.91;100.00
23446;BME280;11895;48.738;9.320;2022-10-13T00:54:19;99369.25;;;12.11;100.00
23446;BME280;11895;48.738;9.320;2022-10-13T00:56:50;99362.69;;;12.17;100.00
23446;BME280;11895;48.738;9.320;2022-10-13T00:59:21;99359.31;;;12.32;100.00
23446;BME280;11895;48.738;9.320;2022-10-13T01:01:52;99349.88;;;12.01;100.00
23446;BME280;11895;48.738;9.320;2022-10-13T01:04:29;99347.25;;;12.00;100.00
23446;BME280;11895;48.738;9.320;2022-10-13T01:07:00;99345.47;;;11.99;100.00
23446;BME280;11895;48.738;9.320;2022-10-13T01:09:29;99340.50;;;11.90;100.00
23446;BME280;11895;48.738;9.320;2022-10-13T01:20:39;99338.34;;;12.57;100.00
23446;BME280;11895;48.738;9.320;2022-10-13T01:23:49;99329.66;;;12.70;100.00
23446;BME280;11895;48.738;9.320;2022-10-13T01:41:05;99329.59;;;13.28;100.00
23446;BME280;11895;48.738;9.320;2022-10-13T01:43:44;99318.03;;;12.49;100.00
23446;BME280;11895;48.738;9.320;2022-10-13T01:46:19;99320.53;;;12.53;100.00
23446;BME280;11895;48.738;9.320;2022-10-13T01:48:52;99313.22;;;12.93;100.00
23446;BME280;11895;48.738;9.320;2022-10-13T01:51:22;99311.78;;;12.67;100.00
23446;BME280;11895;48.738;9.320;2022-10-13T01:53:52;99308.56;;;12.78;100.00
23446;BME280;11895;48.738;9.320;2022-10-13T01:56:19;99301.81;;;13.05;100.00
23446;BME280;11895;48.738;9.320;2022-10-13T01:58:47;99294.84;;;13.19;100.00
23446;BME280;11895;48.738;9.320;2022-10-13T02:06:57;99296.47;;;13.23;100.00
23446;BME280;11895;48.738;9.320;2022-10-13T02:09:49;99303.44;;;13.46;100.00
23446;BME280;11895;48.738;9.320;2022-10-13T02:15:08;99299.72;;;13.66;100.00
23446;BME280;11895;48.738;9.320;2022-10-13T02:17:41;99297.03;;;13.66;100.00
23446;BME280;11895;48.738;9.320;2022-10-13T02:20:10;99295.09;;;13.68;100.00
23446;BME280;11895;48.738;9.320;2022-10-13T02:22:42;99302.84;;;13.75;100.00
23446;BME280;11895;48.738;9.320;2022-10-13T02:25:11;99294.81;;;13.74;100.00
23446;BME280;11895;48.738;9.320;2022-10-13T02:27:39;99306.72;;;13.87;100.00
23446;BME280;11895;48.738;9.320;2022-10-13T02:30:07;99304.59;;;13.76;100.00
23446;BME280;11895;48.738;9.320;2022-10-13T02:32:34;99301.63;;;13.46;100.00
23446;BME280;11895;48.738;9.320;2022-10-13T02:35:01;99305.44;;;13.77;100.00
23446;BME280;11895;48.738;9.320;2022-10-13T02:37:29;99307.84;;;14.00;100.00
23446;BME280;11895;48.738;9.320;2022-10-13T02:39:56;99311.59;;;13.98;100.00
23446;BME280;11895;48.738;9.320;2022-10-13T02:42:23;99308.66;;;14.02;100.00
23446;BME280;11895;48.738;9.320;2022-10-13T02:44:54;99310.06;;;14.09;100.00
23446;BME280;11895;48.738;9.320;2022-10-13T02:47:21;99306.81;;;14.03;100.00
23446;BME280;11895;48.738;9.320;2022-10-13T02:49:48;99303.78;;;13.92;100.00
23446;BME280;11895;48.738;9.320;2022-10-13T02:52:16;99308.31;;;13.91;100.00
23446;BME280;11895;48.738;9.320;2022-10-13T02:54:44;99301.00;;;13.93;100.00
23446;BME280;11895;48.738;9.320;2022-10-13T02:57:11;99297.34;;;13.94;100.00
23446;BME280;11895;48.738;9.320;2022-10-13T02:59:42;99302.44;;;14.00;100.00
23446;BME280;11895;48.738;9.320;2022-10-13T03:02:10;99298.44;;;14.07;100.00
23446;BME280;11895;48.738;9.320;2022-10-13T03:04:37;99309.81;;;14.14;100.00
23446;BME280;11895;48.738;9.320;2022-10-13T03:07:04;99302.09;;;14.24;100.00
23446;BME280;11895;48.738;9.320;2022-10-13T03:09:31;99303.81;;;14.25;100.00
23446;BME280;11895;48.738;9.320;2022-10-13T03:11:58;99290.13;;;14.28;100.00
23446;BME280;11895;48.738;9.320;2022-10-13T03:14:26;99293.00;;;14.25;100.00
23446;BME280;11895;48.738;9.320;2022-10-13T03:16:53;99297.06;;;13.47;100.00
23446;BME280;11895;48.738;9.320;2022-10-13T03:19:20;99298.16;;;13.06;100.00
23446;BME280;11895;48.738;9.320;2022-10-13T03:21:47;99301.75;;;13.26;100.00
23446;BME280;11895;48.738;9.320;2022-10-13T03:24:15;99293.47;;;13.29;100.00
23446;BME280;11895;48.738;9.320;2022-10-13T03:26:42;99292.41;;;13.50;100.00
23446;BME280;11895;48.738;9.320;2022-10-13T03:29:14;99291.69;;;13.64;100.00
23446;BME280;11895;48.738;9.320;2022-10-13T03:31:42;99287.31;;;13.79;100.00
23446;BME280;11895;48.738;9.320;2022-10-13T03:34:11;99285.53;;;13.78;100.00
23446;BME280;11895;48.738;9.320;2022-10-13T03:36:38;99282.53;;;13.67;100.00
23446;BME280;11895;48.738;9.320;2022-10-13T03:39:06;99284.25;;;13.68;100.00
23446;BME280;11895;48.738;9.320;2022-10-13T03:41:33;99275.09;;;13.53;100.00
23446;BME280;11895;48.738;9.320;2022-10-13T03:44:00;99274.25;;;13.35;100.00
23446;BME280;11895;48.738;9.320;2022-10-13T03:46:29;99275.34;;;13.31;100.00
23446;BME280;11895;48.738;9.320;2022-10-13T03:48:57;99263.78;;;13.27;100.00
23446;BME280;11895;48.738;9.320;2022-10-13T03:51:25;99261.59;;;13.17;100.00
23446;BME280;11895;48.738;9.320;2022-10-13T03:53:52;99262.38;;;13.19;100.00
23446;BME280;11895;48.738;9.320;2022-10-13T03:56:22;99256.19;;;13.17;100.00
23446;BME280;11895;48.738;9.320;2022-10-13T03:58:52;99263.56;;;13.32;100.00
23446;BME280;11895;48.738;9.320;2022-10-13T04:01:25;99263.00;;;13.25;100.00
23446;BME280;11895;48.738;9.320;2022-10-13T04:03:55;99254.16;;;13.22;100.00
23446;BME280;11895;48.738;9.320;2022-10-13T04:06:24;99259.91;;;13.50;100.00
23446;BME280;11895;48.738;9.320;2022-10-13T04:08:52;99257.75;;;13.57;100.00
23446;BME280;11895;48.738;9.320;2022-10-13T04:11:20;99263.25;;;13.55;100.00
23446;BME280;11895;48.738;9.320;2022-10-13T04:13:52;99265.41;;;13.66;100.00
23446;BME280;11895;48.738;9.320;2022-10-13T04:16:25;99265.66;;;13.79;100.00
23446;BME280;11895;48.738;9.320;2022-10-13T04:19:00;99269.13;;;13.81;100.00
23446;BME280;11895;48.738;9.320;2022-10-13T04:21:31;99276.78;;;13.73;100.00
23446;BME280;11895;48.738;9.320;2022-10-13T04:24:02;99270.44;;;13.74;100.00
23446;BME280;11895;48.738;9.320;2022-10-13T04:26:34;99269.63;;;13.72;100.00
23446;BME280;11895;48.738;9.320;2022-10-13T04:29:09;99261.97;;;13.80;100.00
23446;BME280;11895;48.738;9.320;2022-10-13T04:31:38;99262.72;;;13.83;100.00
23446;BME280;11895;48.738;9.320;2022-10-13T04:34:06;99257.28;;;13.83;100.00
23446;BME280;11895;48.738;9.320;2022-10-13T04:36:33;99254.72;;;13.80;100.00
23446;BME280;11895;48.738;9.320;2022-10-13T04:39:00;99258.66;;;13.75;100.00
23446;BME280;11895;48.738;9.320;2022-10-13T04:41:28;99264.78;;;13.78;100.00
23446;BME280;11895;48.738;9.320;2022-10-13T04:43:55;99259.59;;;13.56;100.00
23446;BME280;11895;48.738;9.320;2022-10-13T04:46:24;99266.13;;;13.70;100.00
23446;BME280;11895;48.738;9.320;2022-10-13T04:48:53;99267.09;;;13.69;100.00
23446;BME280;11895;48.738;9.320;2022-10-13T04:51:28;99267.88;;;13.71;100.00
23446;BME280;11895;48.738;9.320;2022-10-13T04:54:00;99260.38;;;13.76;100.00
23446;BME280;11895;48.738;9.320;2022-10-13T04:56:28;99260.66;;;13.54;100.00
23446;BME280;11895;48.738;9.320;2022-10-13T04:59:02;99255.28;;;13.35;100.00
23446;BME280;11895;48.738;9.320;2022-10-13T05:01:32;99256.91;;;13.20;100.00
23446;BME280;11895;48.738;9.320;2022-10-13T05:04:02;99255.94;;;13.21;100.00
23446;BME280;11895;48.738;9.320;2022-10-13T05:06:36;99251.94;;;13.30;100.00
23446;BME280;11895;48.738;9.320;2022-10-13T05:09:26;99248.63;;;13.59;100.00
23446;BME280;11895;48.738;9.320;2022-10-13T05:11:53;99235.94;;;13.43;100.00
23446;BME280;11895;48.738;9.320;2022-10-13T05:14:21;99242.00;;;13.48;100.00
23446;BME280;11895;48.738;9.320;2022-10-13T05:16:49;99239.19;;;13.32;100.00
23446;BME280;11895;48.738;9.320;2022-10-13T05:19:16;99246.63;;;13.46;100.00
23446;BME280;11895;48.738;9.320;2022-10-13T05:21:43;99248.91;;;13.36;100.00
23446;BME280;11895;48.738;9.320;2022-10-13T05:24:11;99255.94;;;13.57;100.00
23446;BME280;11895;48.738;9.320;2022-10-13T05:26:40;99256.88;;;13.39;100.00
23446;BME280;11895;48.738;9.320;2022-10-13T05:29:07;99256.41;;;13.48;100.00
23446;BME280;11895;48.738;9.320;2022-10-13T05:31:35;99254.09;;;13.58;100.00
23446;BME280;11895;48.738;9.320;2022-10-13T05:34:02;99252.84;;;13.65;100.00
23446;BME280;11895;48.738;9.320;2022-10-13T05:36:31;99256.47;;;13.81;100.00
23446;BME280;11895;48.738;9.320;2022-10-13T05:39:02;99257.97;;;13.87;100.00
23446;BME280;11895;48.738;9.320;2022-10-13T05:41:31;99255.22;;;13.88;100.00
23446;BME280;11895;48.738;9.320;2022-10-13T05:44:02;99251.78;;;14.02;100.00
23446;BME280;11895;48.738;9.320;2022-10-13T05:46:30;99249.69;;;14.07;100.00
23446;BME280;11895;48.738;9.320;2022-10-13T05:48:58;99258.94;;;14.03;100.00
23446;BME280;11895;48.738;9.320;2022-10-13T05:51:47;99248.25;;;14.00;100.00
23446;BME280;11895;48.738;9.320;2022-10-13T06:04:39;99265.38;;;13.31;100.00
23446;BME280;11895;48.738;9.320;2022-10-13T06:07:11;99260.38;;;13.76;100.00
23446;BME280;11895;48.738;9.320;2022-10-13T06:23:40;99232.59;;;14.23;100.00
23446;BME280;11895;48.738;9.320;2022-10-13T06:26:07;99236.19;;;14.39;100.00
23446;BME280;11895;48.738;9.320;2022-10-13T06:31:59;99236.97;;;14.58;100.00
23446;BME280;11895;48.738;9.320;2022-10-13T06:34:26;99231.44;;;14.60;100.00
23446;BME280;11895;48.738;9.320;2022-10-13T06:36:53;99233.72;;;14.68;100.00
23446;BME280;11895;48.738;9.320;2022-10-13T06:42:49;99248.09;;;14.85;100.00
23446;BME280;11895;48.738;9.320;2022-10-13T06:55:35;99243.09;;;15.09;100.00
23446;BME280;11895;48.738;9.320;2022-10-13T06:58:03;99240.88;;;15.16;100.00
23446;BME280;11895;48.738;9.320;2022-10-13T07:00:30;99233.69;;;15.31;100.00
23446;BME280;11895;48.738;9.320;2022-10-13T07:02:58;99238.47;;;15.41;100.00
23446;BME280;11895;48.738;9.320;2022-10-13T07:05:25;99234.50;;;15.47;100.00
23446;BME280;11895;48.738;9.320;2022-10-13T07:07:52;99231.00;;;15.45;100.00
23446;BME280;11895;48.738;9.320;2022-10-13T07:10:22;99228.91;;;15.50;100.00
23446;BME280;11895;48.738;9.320;2022-10-13T07:12:49;99227.00;;;15.36;100.00
23446;BME280;11895;48.738;9.320;2022-10-13T07:15:16;99234.81;;;15.57;100.00
23446;BME280;11895;48.738;9.320;2022-10-13T07:17:44;99233.09;;;15.72;100.00
23446;BME280;11895;48.738;9.320;2022-10-13T07:20:11;99236.25;;;15.64;100.00
23446;BME280;11895;48.738;9.320;2022-10-13T07:22:38;99231.81;;;15.61;100.00
23446;BME280;11895;48.738;9.320;2022-10-13T07:25:06;99236.19;;;15.80;100.00
23446;BME280;11895;48.738;9.320;2022-10-13T07:27:33;99234.66;;;15.90;100.00
23446;BME280;11895;48.738;9.320;2022-10-13T07:30:00;99235.25;;;16.09;100.00
23446;BME280;11895;48.738;9.320;2022-10-13T07:32:28;99230.03;;;16.06;100.00
23446;BME280;11895;48.738;9.320;2022-10-13T07:34:55;99235.06;;;15.98;100.00
23446;BME280;11895;48.738;9.320;2022-10-13T07:37:22;99234.06;;;15.99;100.00
23446;BME280;11895;48.738;9.320;2022-10-13T07:39:49;99236.31;;;15.92;100.00
23446;BME280;11895;48.738;9.320;2022-10-13T07:42:17;99234.38;;;16.23;100.00
23446;BME280;11895;48.738;9.320;2022-10-13T07:44:45;99241.28;;;16.29;100.00
23446;BME280;11895;48.738;9.320;2022-10-13T07:47:12;99228.09;;;16.23;100.00
23446;BME280;11895;48.738;9.320;2022-10-13T07:49:41;99230.50;;;16.27;100.00
23446;BME280;11895;48.738;9.320;2022-10-13T07:52:09;99224.78;;;16.46;100.00
23446;BME280;11895;48.738;9.320;2022-10-13T07:54:36;99224.59;;;16.49;100.00
23446;BME280;11895;48.738;9.320;2022-10-13T07:57:03;99230.31;;;16.59;100.00
23446;BME280;11895;48.738;9.320;2022-10-13T07:59:31;99224.38;;;16.52;100.00
23446;BME280;11895;48.738;9.320;2022-10-13T08:01:59;99226.53;;;16.76;100.00
23446;BME280;11895;48.738;9.320;2022-10-13T08:04:31;99221.19;;;17.01;100.00
23446;BME280;11895;48.738;9.320;2022-10-13T08:06:59;99227.50;;;17.02;100.00
23446;BME280;11895;48.738;9.320;2022-10-13T08:09:26;99225.13;;;16.97;100.00
23446;BME280;11895;48.738;9.320;2022-10-13T08:11:55;99232.56;;;17.08;100.00
23446;BME280;11895;48.738;9.320;2022-10-13T08:14:28;99224.91;;;17.27;100.00
23446;BME280;11895;48.738;9.320;2022-10-13T08:16:57;99213.25;;;17.25;100.00
23446;BME280;11895;48.738;9.320;2022-10-13T08:19:25;99221.03;;;17.44;100.00
23446;BME280;11895;48.738;9.320;2022-10-13T08:21:53;99219.03;;;17.06;100.00
23446;BME280;11895;48.738;9.320;2022-10-13T08:24:27;99203.19;;;17.13;100.00
23446;BME280;11895;48.738;9.320;2022-10-13T08:26:55;99204.25;;;17.10;100.00
23446;BME280;11895;48.738;9.320;2022-10-13T08:29:22;99208.03;;;17.35;100.00
23446;BME280;11895;48.738;9.320;2022-10-13T08:31:53;99206.50;;;17.31;100.00
23446;BME280;11895;48.738;9.320;2022-10-13T08:34:22;99207.56;;;17.55;100.00
23446;BME280;11895;48.738;9.320;2022-10-13T08:36:51;99205.19;;;17.24;100.00
23446;BME280;11895;48.738;9.320;2022-10-13T08:39:23;99197.38;;;17.32;100.00
23446;BME280;11895;48.738;9.320;2022-10-13T08:41:50;99193.47;;;17.36;100.00
23446;BME280;11895;48.738;9.320;2022-10-13T08:44:38;99194.59;;;17.46;100.00
23446;BME280;11895;48.738;9.320;2022-10-13T08:47:41;99185.91;;;17.66;100.00
23446;BME280;11895;48.738;9.320;2022-10-13T08:50:19;99185.88;;;17.54;100.00
23446;BME280;11895;48.738;9.320;2022-10-13T08:55:32;99170.44;;;18.18;100.00
23446;BME280;11895;48.738;9.320;2022-10-13T08:58:09;99174.47;;;18.38;100.00
23446;BME280;11895;48.738;9.320;2022-10-13T09:00:40;99185.75;;;17.95;100.00
23446;BME280;11895;48.738;9.320;2022-10-13T09:03:28;99185.38;;;18.38;100.00
23446;BME280;11895;48.738;9.320;2022-10-13T09:06:08;99182.22;;;18.44;100.00
23446;BME280;11895;48.738;9.320;2022-10-13T09:08:43;99171.16;;;18.58;100.00
23446;BME280;11895;48.738;9.320;2022-10-13T09:11:35;99167.31;;;18.73;100.00
23446;BME280;11895;48.738;9.320;2022-10-13T09:14:07;99175.63;;;18.46;100.00
23446;BME280;11895;48.738;9.320;2022-10-13T09:16:42;99177.66;;;18.19;100.00
23446;BME280;11895;48.738;9.320;2022-10-13T09:19:19;99178.00;;;18.14;100.00
23446;BME280;11895;48.738;9.320;2022-10-13T09:21:52;99177.22;;;18.38;100.00
23446;BME280;11895;48.738;9.320;2022-10-13T09:24:23;99170.47;;;18.67;100.00
23446;BME280;11895;48.738;9.320;2022-10-13T09:27:09;99173.63;;;18.61;100.00
23446;BME280;11895;48.738;9.320;2022-10-13T09:29:40;99164.06;;;18.68;100.00
23446;BME280;11895;48.738;9.320;2022-10-13T09:32:20;99163.03;;;18.82;100.00
23446;BME280;11895;48.738;9.320;2022-10-13T09:34:50;99173.81;;;18.84;100.00
23446;BME280;11895;48.738;9.320;2022-10-13T09:37:24;99176.84;;;19.40;100.00
23446;BME280;11895;48.738;9.320;2022-10-13T09:42:39;99173.31;;;20.08;100.00
23446;BME280;11895;48.738;9.320;2022-10-13T09:45:14;99172.22;;;20.33;99.44
23446;BME280;11895;48.738;9.320;2022-10-13T09:48:05;99163.59;;;19.58;100.00
23446;BME280;11895;48.738;9.320;2022-10-13T09:50:34;99166.13;;;20.07;100.00
23446;BME280;11895;48.738;9.320;2022-10-13T09:53:36;99167.50;;;20.24;100.00
23446;BME280;11895;48.738;9.320;2022-10-13T09:56:22;99171.50;;;20.53;96.79
23446;BME280;11895;48.738;9.320;2022-10-13T09:59:02;99164.63;;;20.25;98.40
23446;BME280;11895;48.738;9.320;2022-10-13T10:01:39;99170.47;;;20.10;99.16
23446;BME280;11895;48.738;9.320;2022-10-13T10:04:15;99173.59;;;20.50;97.33
23446;BME280;11895;48.738;9.320;2022-10-13T10:06:46;99165.84;;;20.77;95.18
23446;BME280;11895;48.738;9.320;2022-10-13T10:12:00;99167.59;;;20.78;94.68
23446;BME280;11895;48.738;9.320;2022-10-13T10:14:35;99173.44;;;20.85;93.50
23446;BME280;11895;48.738;9.320;2022-10-13T10:25:51;99160.16;;;20.58;97.28
23446;BME280;11895;48.738;9.320;2022-10-13T10:37:24;99149.09;;;21.03;93.36
23446;BME280;11895;48.738;9.320;2022-10-13T10:40:07;99147.47;;;20.79;93.86
23446;BME280;11895;48.738;9.320;2022-10-13T10:45:36;99138.75;;;20.74;94.82
23446;BME280;11895;48.738;9.320;2022-10-13T10:48:22;99134.91;;;20.66;95.59
23446;BME280;11895;48.738;9.320;2022-10-13T10:50:52;99144.63;;;20.47;94.80
23446;BME280;11895;48.738;9.320;2022-10-13T11:02:06;99119.13;;;20.47;94.72
23446;BME280;11895;48.738;9.320;2022-10-13T11:04:42;99115.28;;;20.93;94.82
23446;BME280;11895;48.738;9.320;2022-10-13T11:17:39;99089.22;;;22.14;83.37
23446;BME280;11895;48.738;9.320;2022-10-13T11:25:42;99085.31;;;21.65;84.01
23446;BME280;11895;48.738;9.320;2022-10-13T11:30:56;99076.31;;;22.05;84.74
23446;BME280;11895;48.738;9.320;2022-10-13T11:36:28;99075.81;;;21.27;86.09
23446;BME280;11895;48.738;9.320;2022-10-13T11:53:51;99060.91;;;20.34;99.60
23446;BME280;11895;48.738;9.320;2022-10-13T11:56:34;99042.78;;;21.08;94.89
23446;BME280;11895;48.738;9.320;2022-10-13T11:59:23;99048.16;;;21.30;91.51
23446;BME280;11895;48.738;9.320;2022-10-13T12:02:16;99049.09;;;21.41;87.68
23446;BME280;11895;48.738;9.320;2022-10-13T12:05:25;99030.28;;;21.78;87.35
23446;BME280;11895;48.738;9.320;2022-10-13T12:08:00;99032.47;;;21.84;83.88
23446;BME280;11895;48.738;9.320;2022-10-13T12:10:32;99024.38;;;21.31;89.84
23446;BME280;11895;48.738;9.320;2022-10-13T12:13:02;99025.25;;;21.83;85.89
23446;BME280;11895;48.738;9.320;2022-10-13T12:15:34;99024.56;;;21.91;84.13
23446;BME280;11895;48.738;9.320;2022-10-13T12:20:52;99015.63;;;22.29;82.92
23446;BME280;11895;48.738;9.320;2022-10-13T12:23:20;99005.69;;;22.57;80.77
23446;BME280;11895;48.738;9.320;2022-10-13T12:25:50;99007.91;;;22.13;82.63
23446;BME280;11895;48.738;9.320;2022-10-13T12:28:27;99014.97;;;22.75;80.66
23446;BME280;11895;48.738;9.320;2022-10-13T12:30:58;99009.94;;;22.90;78.88
23446;BME280;11895;48.738;9.320;2022-10-13T12:36:10;98997.03;;;23.20;74.98
23446;BME280;11895;48.738;9.320;2022-10-13T12:38:48;98994.31;;;24.31;70.23
23446;BME280;11895;48.738;9.320;2022-10-13T12:41:23;98987.56;;;25.51;64.19
23446;BME280;11895;48.738;9.320;2022-10-13T12:43:53;98984.88;;;25.59;63.53
23446;BME280;11895;48.738;9.320;2022-10-13T12:49:23;98984.75;;;23.80;69.05
23446;BME280;11895;48.738;9.320;2022-10-13T12:52:12;98982.91;;;24.54;69.10
23446;BME280;11895;48.738;9.320;2022-10-13T12:54:51;98970.31;;;25.05;65.78
23446;BME280;11895;48.738;9.320;2022-10-13T12:57:35;98963.78;;;25.50;64.35
23446;BME280;11895;48.738;9.320;2022-10-13T13:02:51;98951.25;;;24.94;64.90
23446;BME280;11895;48.738;9.320;2022-10-13T13:08:04;98954.03;;;25.11;66.66
23446;BME280;11895;48.738;9.320;2022-10-13T13:11:02;98963.00;;;23.40;72.79
23446;BME280;11895;48.738;9.320;2022-10-13T13:13:33;98957.88;;;24.65;70.87
23446;BME280;11895;48.738;9.320;2022-10-13T13:16:17;98956.78;;;24.94;67.59
23446;BME280;11895;48.738;9.320;2022-10-13T13:18:48;98961.75;;;24.72;67.35
23446;BME280;11895;48.738;9.320;2022-10-13T13:21:18;98968.19;;;24.45;68.49
23446;BME280;11895;48.738;9.320;2022-10-13T13:23:47;98964.78;;;23.78;71.51
23446;BME280;11895;48.738;9.320;2022-10-13T13:26:22;98955.06;;;23.84;74.40
23446;BME280;11895;48.738;9.320;2022-10-13T13:28:54;98971.22;;;24.52;71.24
23446;BME280;11895;48.738;9.320;2022-10-13T13:31:23;98960.59;;;24.57;69.54
23446;BME280;11895;48.738;9.320;2022-10-13T13:33:51;98962.72;;;24.18;70.35
23446;BME280;11895;48.738;9.320;2022-10-13T13:36:21;98957.91;;;24.20;69.48
23446;BME280;11895;48.738;9.320;2022-10-13T13:38:53;98948.38;;;24.59;70.02
23446;BME280;11895;48.738;9.320;2022-10-13T13:41:20;98953.09;;;24.04;70.28
23446;BME280;11895;48.738;9.320;2022-10-13T13:43:48;98956.00;;;23.08;77.91
23446;BME280;11895;48.738;9.320;2022-10-13T13:46:18;98957.91;;;23.65;75.86
23446;BME280;11895;48.738;9.320;2022-10-13T13:48:47;98955.09;;;23.27;76.71
23446;BME280;11895;48.738;9.320;2022-10-13T13:51:39;98950.34;;;23.67;77.14
23446;BME280;11895;48.738;9.320;2022-10-13T13:54:07;98956.38;;;23.80;75.92
23446;BME280;11895;48.738;9.320;2022-10-13T13:56:34;98945.16;;;23.64;76.93
23446;BME280;11895;48.738;9.320;2022-10-13T13:59:02;98949.81;;;22.58;80.01
23446;BME280;11895;48.738;9.320;2022-10-13T14:01:29;98950.94;;;23.04;82.48
23446;BME280;11895;48.738;9.320;2022-10-13T14:03:58;98953.44;;;23.44;79.62
23446;BME280;11895;48.738;9.320;2022-10-13T14:06:25;98957.88;;;22.79;80.81
23446;BME280;11895;48.738;9.320;2022-10-13T14:08:53;98942.56;;;22.57;83.78
23446;BME280;11895;48.738;9.320;2022-10-13T14:11:20;98943.28;;;22.59;82.90
23446;BME280;11895;48.738;9.320;2022-10-13T14:13:47;98942.41;;;23.07;82.79
23446;BME280;11895;48.738;9.320;2022-10-13T14:16:23;98939.81;;;22.96;81.02
23446;BME280;11895;48.738;9.320;2022-10-13T14:18:50;98927.97;;;22.95;83.01
23446;BME280;11895;48.738;9.320;2022-10-13T14:21:17;98921.88;;;22.43;84.81
23446;BME280;11895;48.738;9.320;2022-10-13T14:23:44;98930.69;;;22.47;85.37
23446;BME280;11895;48.738;9.320;2022-10-13T14:26:13;98926.38;;;22.73;83.83
23446;BME280;11895;48.738;9.320;2022-10-13T14:28:42;98934.03;;;22.41;86.29
23446;BME280;11895;48.738;9.320;2022-10-13T14:31:10;98914.47;;;21.65;90.64
23446;BME280;11895;48.738;9.320;2022-10-13T14:33:39;98920.06;;;22.03;90.47
23446;BME280;11895;48.738;9.320;2022-10-13T14:36:07;98922.97;;;22.02;90.42
23446;BME280;11895;48.738;9.320;2022-10-13T14:38:35;98929.53;;;22.20;90.36
23446;BME280;11895;48.738;9.320;2022-10-13T14:41:03;98932.56;;;22.37;89.81
23446;BME280;11895;48.738;9.320;2022-10-13T14:43:32;98915.53;;;22.62;89.32
23446;BME280;11895;48.738;9.320;2022-10-13T14:46:04;98924.19;;;22.67;86.01
23446;BME280;11895;48.738;9.320;2022-10-13T14:48:33;98923.19;;;22.88;86.99
23446;BME280;11895;48.738;9.320;2022-10-13T14:51:06;98924.19;;;22.77;83.62
23446;BME280;11895;48.738;9.320;2022-10-13T14:53:36;98917.56;;;22.41;86.35
23446;BME280;11895;48.738;9.320;2022-10-13T14:58:55;98918.13;;;22.83;85.26
23446;BME280;11895;48.738;9.320;2022-10-13T15:01:29;98908.88;;;22.84;85.30
23446;BME280;11895;48.738;9.320;2022-10-13T15:03:56;98906.16;;;22.36;89.52
23446;BME280;11895;48.738;9.320;2022-10-13T15:06:24;98915.09;;;21.68;92.95
23446;BME280;11895;48.738;9.320;2022-10-13T15:08:51;98918.34;;;22.02;94.53
23446;BME280;11895;48.738;9.320;2022-10-13T15:11:23;98908.16;;;22.33;92.61
23446;BME280;11895;48.738;9.320;2022-10-13T15:13:50;98912.94;;;22.41;91.44
23446;BME280;11895;48.738;9.320;2022-10-13T15:16:28;98908.16;;;22.33;90.92
23446;BME280;11895;48.738;9.320;2022-10-13T15:18:58;98910.03;;;22.33;91.57
23446;BME280;11895;48.738;9.320;2022-10-13T15:21:25;98911.38;;;21.89;94.39
23446;BME280;11895;48.738;9.320;2022-10-13T15:23:53;98911.69;;;21.86;96.49
23446;BME280;11895;48.738;9.320;2022-10-13T15:26:20;98918.84;;;21.16;100.00
23446;BME280;11895;48.738;9.320;2022-10-13T15:28:51;98912.91;;;21.62;100.00
23446;BME280;11895;48.738;9.320;2022-10-13T15:31:20;98913.16;;;21.59;100.00
23446;BME280;11895;48.738;9.320;2022-10-13T15:33:51;98925.47;;;20.71;100.00
23446;BME280;11895;48.738;9.320;2022-10-13T15:36:21;98916.88;;;20.97;100.00
23446;BME280;11895;48.738;9.320;2022-10-13T15:38:50;98916.88;;;21.18;100.00
23446;BME280;11895;48.738;9.320;2022-10-13T15:41:17;98918.34;;;21.01;100.00
23446;BME280;11895;48.738;9.320;2022-10-13T15:43:45;98924.94;;;21.19;100.00
23446;BME280;11895;48.738;9.320;2022-10-13T15:46:14;98916.25;;;20.93;100.00
23446;BME280;11895;48.738;9.320;2022-10-13T15:48:50;98921.22;;;20.99;100.00
23446;BME280;11895;48.738;9.320;2022-10-13T15:51:21;98920.53;;;21.07;100.00
23446;BME280;11895;48.738;9.320;2022-10-13T15:53:50;98918.25;;;21.12;100.00
23446;BME280;11895;48.738;9.320;2022-10-13T15:56:17;98917.84;;;21.17;100.00
23446;BME280;11895;48.738;9.320;2022-10-13T15:58:44;98918.00;;;21.15;100.00
23446;BME280;11895;48.738;9.320;2022-10-13T16:01:12;98919.25;;;21.11;100.00